sensor_id;sensor_type;location;lat;lon;timestamp;P1;durP1;ratioP1;P2;durP2;ratioP2
57663;SDS011;43493;53.098;6.064;2023-02-02T00:00:48;29.00;;;5.45;;
57663;SDS011;43493;53.098;6.064;2023-02-02T00:03:14;30.35;;;4.95;;
57663;SDS011;43493;53.098;6.064;2023-02-02T00:05:47;22.63;;;4.70;;
57663;SDS011;43493;53.098;6.064;2023-02-02T00:08:16;30.67;;;5.72;;
57663;SDS011;43493;53.098;6.064;2023-02-02T00:10:43;32.58;;;5.28;;
57663;SDS011;43493;53.098;6.064;2023-02-02T00:13:09;28.70;;;5.28;;
57663;SDS011;43493;53.098;6.064;2023-02-02T00:15:36;28.70;;;4.85;;
57663;SDS011;43493;53.098;6.064;2023-02-02T00:18:02;32.17;;;4.45;;
57663;SDS011;43493;53.098;6.064;2023-02-02T00:20:28;33.47;;;4.80;;
57663;SDS011;43493;53.098;6.064;2023-02-02T00:22:55;32.38;;;4.95;;
57663;SDS011;43493;53.098;6.064;2023-02-02T00:25:21;30.60;;;5.13;;
57663;SDS011;43493;53.098;6.064;2023-02-02T00:27:47;29.17;;;4.78;;
57663;SDS011;43493;53.098;6.064;2023-02-02T00:30:13;26.47;;;4.30;;
57663;SDS011;43493;53.098;6.064;2023-02-02T00:32:39;22.20;;;3.92;;
57663;SDS011;43493;53.098;6.064;2023-02-02T00:35:05;31.50;;;5.50;;
57663;SDS011;43493;53.098;6.064;2023-02-02T00:37:32;32.53;;;6.72;;
57663;SDS011;43493;53.098;6.064;2023-02-02T00:39:58;39.05;;;6.65;;
57663;SDS011;43493;53.098;6.064;2023-02-02T00:42:24;29.73;;;4.93;;
57663;SDS011;43493;53.098;6.064;2023-02-02T00:44:49;30.17;;;3.90;;
57663;SDS011;43493;53.098;6.064;2023-02-02T00:47:34;21.63;;;4.18;;
57663;SDS011;43493;53.098;6.064;2023-02-02T00:50:00;31.50;;;5.13;;
57663;SDS011;43493;53.098;6.064;2023-02-02T00:52:25;31.07;;;4.93;;
57663;SDS011;43493;53.098;6.064;2023-02-02T00:54:52;27.08;;;5.22;;
57663;SDS011;43493;53.098;6.064;2023-02-02T00:57:17;33.60;;;6.27;;
57663;SDS011;43493;53.098;6.064;2023-02-02T00:59:43;32.73;;;5.17;;
57663;SDS011;43493;53.098;6.064;2023-02-02T01:02:12;22.23;;;4.00;;
57663;SDS011;43493;53.098;6.064;2023-02-02T01:04:38;33.15;;;4.97;;
57663;SDS011;43493;53.098;6.064;2023-02-02T01:07:04;31.08;;;5.10;;
57663;SDS011;43493;53.098;6.064;2023-02-02T01:09:29;31.63;;;5.23;;
57663;SDS011;43493;53.098;6.064;2023-02-02T01:11:55;26.47;;;4.00;;
57663;SDS011;43493;53.098;6.064;2023-02-02T01:14:21;31.17;;;4.43;;
57663;SDS011;43493;53.098;6.064;2023-02-02T01:16:47;30.13;;;4.20;;
57663;SDS011;43493;53.098;6.064;2023-02-02T01:19:13;31.87;;;5.80;;
57663;SDS011;43493;53.098;6.064;2023-02-02T01:21:39;28.98;;;4.57;;
57663;SDS011;43493;53.098;6.064;2023-02-02T01:24:06;31.45;;;4.65;;
57663;SDS011;43493;53.098;6.064;2023-02-02T01:26:32;28.43;;;4.27;;
57663;SDS011;43493;53.098;6.064;2023-02-02T01:28:58;35.80;;;5.47;;
57663;SDS011;43493;53.098;6.064;2023-02-02T01:31:23;26.00;;;4.47;;
57663;SDS011;43493;53.098;6.064;2023-02-02T01:33:49;30.60;;;4.27;;
57663;SDS011;43493;53.098;6.064;2023-02-02T01:36:16;41.85;;;5.75;;
57663;SDS011;43493;53.098;6.064;2023-02-02T01:38:44;32.10;;;5.13;;
57663;SDS011;43493;53.098;6.064;2023-02-02T01:41:14;28.25;;;4.38;;
57663;SDS011;43493;53.098;6.064;2023-02-02T01:46:11;31.55;;;6.30;;
57663;SDS011;43493;53.098;6.064;2023-02-02T01:54:12;30.55;;;4.65;;
57663;SDS011;43493;53.098;6.064;2023-02-02T01:56:45;27.75;;;5.05;;
57663;SDS011;43493;53.098;6.064;2023-02-02T01:59:15;40.47;;;4.80;;
57663;SDS011;43493;53.098;6.064;2023-02-02T02:01:42;34.55;;;4.90;;
57663;SDS011;43493;53.098;6.064;2023-02-02T02:04:10;36.83;;;4.90;;
57663;SDS011;43493;53.098;6.064;2023-02-02T02:06:36;35.97;;;5.30;;
57663;SDS011;43493;53.098;6.064;2023-02-02T02:09:03;27.48;;;4.50;;
57663;SDS011;43493;53.098;6.064;2023-02-02T02:11:30;28.52;;;4.55;;
57663;SDS011;43493;53.098;6.064;2023-02-02T02:14:04;33.70;;;4.63;;
57663;SDS011;43493;53.098;6.064;2023-02-02T02:19:40;35.97;;;5.05;;
57663;SDS011;43493;53.098;6.064;2023-02-02T02:29:05;28.58;;;4.28;;
57663;SDS011;43493;53.098;6.064;2023-02-02T02:36:33;29.05;;;3.65;;
57663;SDS011;43493;53.098;6.064;2023-02-02T02:39:08;28.63;;;4.30;;
57663;SDS011;43493;53.098;6.064;2023-02-02T02:41:46;34.85;;;4.47;;
57663;SDS011;43493;53.098;6.064;2023-02-02T02:44:16;27.80;;;3.67;;
57663;SDS011;43493;53.098;6.064;2023-02-02T02:46:43;22.48;;;3.30;;
57663;SDS011;43493;53.098;6.064;2023-02-02T02:49:10;20.45;;;3.00;;
57663;SDS011;43493;53.098;6.064;2023-02-02T02:54:09;22.27;;;4.10;;
57663;SDS011;43493;53.098;6.064;2023-02-02T03:05:45;24.33;;;3.55;;
57663;SDS011;43493;53.098;6.064;2023-02-02T03:08:25;21.35;;;3.97;;
57663;SDS011;43493;53.098;6.064;2023-02-02T03:10:56;22.63;;;4.25;;
57663;SDS011;43493;53.098;6.064;2023-02-02T03:13:24;21.80;;;3.28;;
57663;SDS011;43493;53.098;6.064;2023-02-02T03:15:51;20.58;;;3.95;;
57663;SDS011;43493;53.098;6.064;2023-02-02T03:18:17;23.40;;;3.40;;
57663;SDS011;43493;53.098;6.064;2023-02-02T03:20:46;22.20;;;3.10;;
57663;SDS011;43493;53.098;6.064;2023-02-02T03:23:12;23.00;;;3.57;;
57663;SDS011;43493;53.098;6.064;2023-02-02T03:25:38;23.55;;;3.35;;
57663;SDS011;43493;53.098;6.064;2023-02-02T03:28:04;16.80;;;2.50;;
57663;SDS011;43493;53.098;6.064;2023-02-02T03:30:31;14.27;;;2.55;;
57663;SDS011;43493;53.098;6.064;2023-02-02T03:32:57;17.10;;;2.55;;
57663;SDS011;43493;53.098;6.064;2023-02-02T03:35:23;21.03;;;3.30;;
57663;SDS011;43493;53.098;6.064;2023-02-02T03:37:50;15.88;;;2.47;;
57663;SDS011;43493;53.098;6.064;2023-02-02T03:40:17;14.45;;;1.85;;
57663;SDS011;43493;53.098;6.064;2023-02-02T03:42:42;16.47;;;2.20;;
57663;SDS011;43493;53.098;6.064;2023-02-02T03:45:08;15.90;;;2.43;;
57663;SDS011;43493;53.098;6.064;2023-02-02T03:47:34;14.68;;;3.03;;
57663;SDS011;43493;53.098;6.064;2023-02-02T03:50:00;14.70;;;2.00;;
57663;SDS011;43493;53.098;6.064;2023-02-02T03:52:26;13.10;;;2.23;;
57663;SDS011;43493;53.098;6.064;2023-02-02T03:54:52;19.97;;;2.47;;
57663;SDS011;43493;53.098;6.064;2023-02-02T03:57:18;14.17;;;2.23;;
57663;SDS011;43493;53.098;6.064;2023-02-02T03:59:44;14.65;;;2.35;;
57663;SDS011;43493;53.098;6.064;2023-02-02T04:02:09;13.17;;;2.40;;
57663;SDS011;43493;53.098;6.064;2023-02-02T04:04:35;14.57;;;2.53;;
57663;SDS011;43493;53.098;6.064;2023-02-02T04:07:01;10.13;;;2.20;;
57663;SDS011;43493;53.098;6.064;2023-02-02T04:09:27;13.03;;;2.10;;
57663;SDS011;43493;53.098;6.064;2023-02-02T04:11:52;13.43;;;2.07;;
57663;SDS011;43493;53.098;6.064;2023-02-02T04:14:18;13.07;;;2.53;;
57663;SDS011;43493;53.098;6.064;2023-02-02T04:16:44;12.65;;;1.75;;
57663;SDS011;43493;53.098;6.064;2023-02-02T04:19:10;14.90;;;1.90;;
57663;SDS011;43493;53.098;6.064;2023-02-02T04:21:37;13.52;;;1.92;;
57663;SDS011;43493;53.098;6.064;2023-02-02T04:24:03;11.88;;;1.92;;
57663;SDS011;43493;53.098;6.064;2023-02-02T04:26:38;11.68;;;2.00;;
57663;SDS011;43493;53.098;6.064;2023-02-02T04:29:04;11.57;;;1.83;;
57663;SDS011;43493;53.098;6.064;2023-02-02T04:31:30;8.87;;;1.53;;
57663;SDS011;43493;53.098;6.064;2023-02-02T04:33:56;11.23;;;1.60;;
57663;SDS011;43493;53.098;6.064;2023-02-02T04:36:22;11.00;;;1.65;;
57663;SDS011;43493;53.098;6.064;2023-02-02T04:38:48;9.10;;;1.50;;
57663;SDS011;43493;53.098;6.064;2023-02-02T04:41:17;7.00;;;1.80;;
57663;SDS011;43493;53.098;6.064;2023-02-02T04:43:43;11.02;;;1.58;;
57663;SDS011;43493;53.098;6.064;2023-02-02T04:46:10;8.98;;;1.33;;
57663;SDS011;43493;53.098;6.064;2023-02-02T04:48:36;7.80;;;1.87;;
57663;SDS011;43493;53.098;6.064;2023-02-02T04:51:06;8.85;;;1.45;;
57663;SDS011;43493;53.098;6.064;2023-02-02T04:53:34;8.30;;;1.63;;
57663;SDS011;43493;53.098;6.064;2023-02-02T04:56:08;9.57;;;1.85;;
57663;SDS011;43493;53.098;6.064;2023-02-02T04:58:37;10.15;;;1.70;;
57663;SDS011;43493;53.098;6.064;2023-02-02T05:01:16;14.93;;;1.70;;
57663;SDS011;43493;53.098;6.064;2023-02-02T05:03:43;13.48;;;2.05;;
57663;SDS011;43493;53.098;6.064;2023-02-02T05:06:09;10.03;;;2.00;;
57663;SDS011;43493;53.098;6.064;2023-02-02T05:08:35;12.05;;;2.33;;
57663;SDS011;43493;53.098;6.064;2023-02-02T05:11:05;8.23;;;1.40;;
57663;SDS011;43493;53.098;6.064;2023-02-02T05:13:32;9.43;;;2.22;;
57663;SDS011;43493;53.098;6.064;2023-02-02T05:15:58;9.07;;;1.63;;
57663;SDS011;43493;53.098;6.064;2023-02-02T05:18:23;10.27;;;1.87;;
57663;SDS011;43493;53.098;6.064;2023-02-02T05:20:50;7.73;;;1.70;;
57663;SDS011;43493;53.098;6.064;2023-02-02T05:23:16;12.07;;;1.88;;
57663;SDS011;43493;53.098;6.064;2023-02-02T05:25:43;14.27;;;1.67;;
57663;SDS011;43493;53.098;6.064;2023-02-02T05:28:09;11.60;;;1.73;;
57663;SDS011;43493;53.098;6.064;2023-02-02T05:30:37;13.73;;;2.00;;
57663;SDS011;43493;53.098;6.064;2023-02-02T05:33:03;13.30;;;2.05;;
57663;SDS011;43493;53.098;6.064;2023-02-02T05:35:29;6.73;;;1.43;;
57663;SDS011;43493;53.098;6.064;2023-02-02T05:37:54;10.13;;;2.17;;
57663;SDS011;43493;53.098;6.064;2023-02-02T05:40:20;11.30;;;2.30;;
57663;SDS011;43493;53.098;6.064;2023-02-02T05:42:46;13.73;;;2.03;;
57663;SDS011;43493;53.098;6.064;2023-02-02T05:45:13;10.27;;;1.98;;
57663;SDS011;43493;53.098;6.064;2023-02-02T05:47:39;11.00;;;1.90;;
57663;SDS011;43493;53.098;6.064;2023-02-02T05:50:05;9.93;;;1.93;;
57663;SDS011;43493;53.098;6.064;2023-02-02T05:52:31;6.20;;;1.40;;
57663;SDS011;43493;53.098;6.064;2023-02-02T05:54:59;15.02;;;2.70;;
57663;SDS011;43493;53.098;6.064;2023-02-02T05:57:25;11.10;;;2.30;;
57663;SDS011;43493;53.098;6.064;2023-02-02T05:59:52;12.55;;;1.83;;
57663;SDS011;43493;53.098;6.064;2023-02-02T06:02:18;13.48;;;2.20;;
57663;SDS011;43493;53.098;6.064;2023-02-02T06:04:44;11.73;;;2.10;;
57663;SDS011;43493;53.098;6.064;2023-02-02T06:07:09;10.83;;;1.87;;
57663;SDS011;43493;53.098;6.064;2023-02-02T06:09:36;14.65;;;2.70;;
57663;SDS011;43493;53.098;6.064;2023-02-02T06:12:02;12.03;;;2.27;;
57663;SDS011;43493;53.098;6.064;2023-02-02T06:14:28;10.23;;;1.90;;
57663;SDS011;43493;53.098;6.064;2023-02-02T06:16:54;11.57;;;2.10;;
57663;SDS011;43493;53.098;6.064;2023-02-02T06:19:20;12.47;;;2.13;;
57663;SDS011;43493;53.098;6.064;2023-02-02T06:21:45;12.53;;;1.90;;
57663;SDS011;43493;53.098;6.064;2023-02-02T06:24:11;11.57;;;2.00;;
57663;SDS011;43493;53.098;6.064;2023-02-02T06:26:37;10.40;;;1.70;;
57663;SDS011;43493;53.098;6.064;2023-02-02T06:29:03;15.03;;;2.50;;
57663;SDS011;43493;53.098;6.064;2023-02-02T06:31:28;10.33;;;2.63;;
57663;SDS011;43493;53.098;6.064;2023-02-02T06:33:55;7.17;;;1.83;;
57663;SDS011;43493;53.098;6.064;2023-02-02T06:36:22;11.10;;;2.72;;
57663;SDS011;43493;53.098;6.064;2023-02-02T06:38:50;10.82;;;2.63;;
57663;SDS011;43493;53.098;6.064;2023-02-02T06:41:18;10.60;;;2.65;;
57663;SDS011;43493;53.098;6.064;2023-02-02T06:43:47;15.48;;;3.53;;
57663;SDS011;43493;53.098;6.064;2023-02-02T06:46:14;12.85;;;2.95;;
57663;SDS011;43493;53.098;6.064;2023-02-02T06:48:40;11.60;;;2.80;;
57663;SDS011;43493;53.098;6.064;2023-02-02T06:51:06;10.20;;;2.37;;
57663;SDS011;43493;53.098;6.064;2023-02-02T06:53:32;9.60;;;2.43;;
57663;SDS011;43493;53.098;6.064;2023-02-02T06:56:00;8.35;;;3.13;;
57663;SDS011;43493;53.098;6.064;2023-02-02T06:58:27;8.80;;;2.75;;
57663;SDS011;43493;53.098;6.064;2023-02-02T07:00:54;10.07;;;3.33;;
57663;SDS011;43493;53.098;6.064;2023-02-02T07:03:20;11.03;;;2.93;;
57663;SDS011;43493;53.098;6.064;2023-02-02T07:05:47;10.75;;;2.60;;
57663;SDS011;43493;53.098;6.064;2023-02-02T07:08:13;8.13;;;2.50;;
57663;SDS011;43493;53.098;6.064;2023-02-02T07:10:39;8.95;;;3.20;;
57663;SDS011;43493;53.098;6.064;2023-02-02T07:13:05;12.03;;;3.57;;
57663;SDS011;43493;53.098;6.064;2023-02-02T07:15:32;10.97;;;3.40;;
57663;SDS011;43493;53.098;6.064;2023-02-02T07:17:58;9.65;;;2.97;;
57663;SDS011;43493;53.098;6.064;2023-02-02T07:20:24;9.57;;;2.80;;
57663;SDS011;43493;53.098;6.064;2023-02-02T07:22:50;8.93;;;3.50;;
57663;SDS011;43493;53.098;6.064;2023-02-02T07:25:16;12.87;;;3.57;;
57663;SDS011;43493;53.098;6.064;2023-02-02T07:27:42;8.77;;;3.17;;
57663;SDS011;43493;53.098;6.064;2023-02-02T07:30:08;12.83;;;3.47;;
57663;SDS011;43493;53.098;6.064;2023-02-02T07:32:34;9.93;;;3.30;;
57663;SDS011;43493;53.098;6.064;2023-02-02T07:35:00;10.30;;;3.70;;
57663;SDS011;43493;53.098;6.064;2023-02-02T07:37:26;10.73;;;3.63;;
57663;SDS011;43493;53.098;6.064;2023-02-02T07:39:51;11.43;;;3.20;;
57663;SDS011;43493;53.098;6.064;2023-02-02T07:42:17;11.67;;;3.80;;
57663;SDS011;43493;53.098;6.064;2023-02-02T07:44:44;9.40;;;4.30;;
57663;SDS011;43493;53.098;6.064;2023-02-02T07:47:10;8.20;;;3.50;;
57663;SDS011;43493;53.098;6.064;2023-02-02T07:49:35;11.53;;;4.00;;
57663;SDS011;43493;53.098;6.064;2023-02-02T07:52:01;12.03;;;4.73;;
57663;SDS011;43493;53.098;6.064;2023-02-02T07:54:27;9.23;;;3.60;;
57663;SDS011;43493;53.098;6.064;2023-02-02T07:56:53;7.23;;;2.90;;
57663;SDS011;43493;53.098;6.064;2023-02-02T07:59:18;9.90;;;3.03;;
57663;SDS011;43493;53.098;6.064;2023-02-02T08:01:44;10.80;;;3.47;;
57663;SDS011;43493;53.098;6.064;2023-02-02T08:04:10;10.23;;;3.30;;
57663;SDS011;43493;53.098;6.064;2023-02-02T08:06:36;9.23;;;3.20;;
57663;SDS011;43493;53.098;6.064;2023-02-02T08:09:04;9.07;;;3.30;;
57663;SDS011;43493;53.098;6.064;2023-02-02T08:11:32;9.10;;;3.47;;
57663;SDS011;43493;53.098;6.064;2023-02-02T08:13:58;8.90;;;3.20;;
57663;SDS011;43493;53.098;6.064;2023-02-02T08:16:26;6.53;;;3.40;;
57663;SDS011;43493;53.098;6.064;2023-02-02T08:18:53;8.38;;;3.70;;
57663;SDS011;43493;53.098;6.064;2023-02-02T08:21:19;7.47;;;3.45;;
57663;SDS011;43493;53.098;6.064;2023-02-02T08:23:45;9.85;;;4.28;;
57663;SDS011;43493;53.098;6.064;2023-02-02T08:26:16;7.82;;;4.38;;
57663;SDS011;43493;53.098;6.064;2023-02-02T08:28:42;9.00;;;4.03;;
57663;SDS011;43493;53.098;6.064;2023-02-02T08:33:38;7.68;;;4.22;;
57663;SDS011;43493;53.098;6.064;2023-02-02T08:36:04;8.93;;;4.70;;
57663;SDS011;43493;53.098;6.064;2023-02-02T08:38:32;9.38;;;4.82;;
57663;SDS011;43493;53.098;6.064;2023-02-02T08:41:03;8.97;;;4.70;;
57663;SDS011;43493;53.098;6.064;2023-02-02T08:43:30;8.07;;;4.32;;
57663;SDS011;43493;53.098;6.064;2023-02-02T08:45:55;10.20;;;4.37;;
57663;SDS011;43493;53.098;6.064;2023-02-02T08:48:21;8.57;;;4.63;;
57663;SDS011;43493;53.098;6.064;2023-02-02T08:50:51;9.93;;;4.83;;
57663;SDS011;43493;53.098;6.064;2023-02-02T08:53:18;9.30;;;4.10;;
57663;SDS011;43493;53.098;6.064;2023-02-02T08:55:43;6.10;;;3.83;;
57663;SDS011;43493;53.098;6.064;2023-02-02T08:58:09;9.57;;;3.70;;
57663;SDS011;43493;53.098;6.064;2023-02-02T09:00:35;7.60;;;4.00;;
57663;SDS011;43493;53.098;6.064;2023-02-02T09:03:00;10.57;;;3.83;;
57663;SDS011;43493;53.098;6.064;2023-02-02T09:05:26;8.47;;;4.00;;
57663;SDS011;43493;53.098;6.064;2023-02-02T09:07:52;9.20;;;4.33;;
57663;SDS011;43493;53.098;6.064;2023-02-02T09:10:18;8.20;;;4.20;;
57663;SDS011;43493;53.098;6.064;2023-02-02T09:12:43;9.47;;;4.40;;
57663;SDS011;43493;53.098;6.064;2023-02-02T09:15:09;8.03;;;4.73;;
57663;SDS011;43493;53.098;6.064;2023-02-02T09:17:36;9.47;;;5.17;;
57663;SDS011;43493;53.098;6.064;2023-02-02T09:20:02;8.83;;;5.30;;
57663;SDS011;43493;53.098;6.064;2023-02-02T09:22:29;7.95;;;4.38;;
57663;SDS011;43493;53.098;6.064;2023-02-02T09:24:55;8.00;;;4.43;;
57663;SDS011;43493;53.098;6.064;2023-02-02T09:27:20;6.40;;;3.73;;
57663;SDS011;43493;53.098;6.064;2023-02-02T09:29:46;7.67;;;4.17;;
57663;SDS011;43493;53.098;6.064;2023-02-02T09:32:12;7.85;;;4.40;;
57663;SDS011;43493;53.098;6.064;2023-02-02T09:34:38;7.13;;;4.80;;
57663;SDS011;43493;53.098;6.064;2023-02-02T09:37:04;10.10;;;4.10;;
57663;SDS011;43493;53.098;6.064;2023-02-02T09:39:30;6.67;;;3.77;;
57663;SDS011;43493;53.098;6.064;2023-02-02T09:44:48;8.05;;;4.25;;
57663;SDS011;43493;53.098;6.064;2023-02-02T09:50:01;7.63;;;4.57;;
57663;SDS011;43493;53.098;6.064;2023-02-02T09:52:42;8.07;;;4.43;;
57663;SDS011;43493;53.098;6.064;2023-02-02T09:55:25;8.25;;;4.90;;
57663;SDS011;43493;53.098;6.064;2023-02-02T09:58:05;8.33;;;4.57;;
57663;SDS011;43493;53.098;6.064;2023-02-02T10:00:40;8.48;;;4.85;;
57663;SDS011;43493;53.098;6.064;2023-02-02T10:03:26;8.10;;;5.07;;
57663;SDS011;43493;53.098;6.064;2023-02-02T10:06:01;7.03;;;4.57;;
57663;SDS011;43493;53.098;6.064;2023-02-02T10:08:37;9.20;;;4.57;;
57663;SDS011;43493;53.098;6.064;2023-02-02T10:14:03;7.40;;;4.03;;
57663;SDS011;43493;53.098;6.064;2023-02-02T10:16:40;8.27;;;4.40;;
57663;SDS011;43493;53.098;6.064;2023-02-02T10:19:10;6.55;;;4.40;;
57663;SDS011;43493;53.098;6.064;2023-02-02T10:21:50;7.20;;;4.50;;
57663;SDS011;43493;53.098;6.064;2023-02-02T10:24:21;7.60;;;4.50;;
57663;SDS011;43493;53.098;6.064;2023-02-02T10:26:59;8.93;;;5.03;;
57663;SDS011;43493;53.098;6.064;2023-02-02T10:32:32;8.23;;;4.23;;
57663;SDS011;43493;53.098;6.064;2023-02-02T10:35:26;7.67;;;4.70;;
57663;SDS011;43493;53.098;6.064;2023-02-02T10:47:14;6.10;;;3.87;;
57663;SDS011;43493;53.098;6.064;2023-02-02T10:52:19;5.90;;;2.67;;
57663;SDS011;43493;53.098;6.064;2023-02-02T10:57:42;5.82;;;2.70;;
57663;SDS011;43493;53.098;6.064;2023-02-02T11:03:07;9.70;;;3.55;;
57663;SDS011;43493;53.098;6.064;2023-02-02T11:05:36;6.10;;;3.00;;
57663;SDS011;43493;53.098;6.064;2023-02-02T11:10:51;7.05;;;2.70;;
57663;SDS011;43493;53.098;6.064;2023-02-02T11:13:26;6.80;;;2.33;;
57663;SDS011;43493;53.098;6.064;2023-02-02T11:18:38;7.57;;;2.23;;
57663;SDS011;43493;53.098;6.064;2023-02-02T11:21:24;6.97;;;2.30;;
57663;SDS011;43493;53.098;6.064;2023-02-02T11:23:52;6.33;;;1.47;;
57663;SDS011;43493;53.098;6.064;2023-02-02T11:26:18;6.00;;;1.60;;
57663;SDS011;43493;53.098;6.064;2023-02-02T11:28:46;10.10;;;2.13;;
57663;SDS011;43493;53.098;6.064;2023-02-02T11:31:28;7.10;;;1.40;;
57663;SDS011;43493;53.098;6.064;2023-02-02T11:34:04;5.77;;;1.40;;
57663;SDS011;43493;53.098;6.064;2023-02-02T11:39:41;8.13;;;1.63;;
57663;SDS011;43493;53.098;6.064;2023-02-02T11:42:14;5.07;;;1.57;;
57663;SDS011;43493;53.098;6.064;2023-02-02T11:44:44;4.50;;;1.60;;
57663;SDS011;43493;53.098;6.064;2023-02-02T11:47:19;7.63;;;1.53;;
57663;SDS011;43493;53.098;6.064;2023-02-02T11:49:50;5.93;;;1.40;;
57663;SDS011;43493;53.098;6.064;2023-02-02T11:52:19;4.53;;;1.63;;
57663;SDS011;43493;53.098;6.064;2023-02-02T11:54:51;6.20;;;2.00;;
57663;SDS011;43493;53.098;6.064;2023-02-02T11:57:21;6.80;;;2.33;;
57663;SDS011;43493;53.098;6.064;2023-02-02T11:59:49;8.37;;;2.20;;
57663;SDS011;43493;53.098;6.064;2023-02-02T12:02:30;8.47;;;2.20;;
57663;SDS011;43493;53.098;6.064;2023-02-02T12:05:21;6.57;;;2.20;;
57663;SDS011;43493;53.098;6.064;2023-02-02T12:07:58;6.13;;;2.27;;
57663;SDS011;43493;53.098;6.064;2023-02-02T12:10:31;5.37;;;2.00;;
57663;SDS011;43493;53.098;6.064;2023-02-02T12:13:09;5.13;;;1.90;;
57663;SDS011;43493;53.098;6.064;2023-02-02T12:21:52;4.90;;;2.10;;
57663;SDS011;43493;53.098;6.064;2023-02-02T12:27:04;4.03;;;2.20;;
57663;SDS011;43493;53.098;6.064;2023-02-02T12:35:26;7.63;;;2.77;;
57663;SDS011;43493;53.098;6.064;2023-02-02T12:38:19;6.80;;;2.33;;
57663;SDS011;43493;53.098;6.064;2023-02-02T12:41:07;4.87;;;2.13;;
57663;SDS011;43493;53.098;6.064;2023-02-02T12:43:54;8.07;;;2.50;;
57663;SDS011;43493;53.098;6.064;2023-02-02T12:52:15;5.97;;;2.73;;
57663;SDS011;43493;53.098;6.064;2023-02-02T13:03:13;8.50;;;4.33;;
57663;SDS011;43493;53.098;6.064;2023-02-02T13:05:50;10.13;;;5.50;;
57663;SDS011;43493;53.098;6.064;2023-02-02T13:08:46;10.50;;;4.97;;
57663;SDS011;43493;53.098;6.064;2023-02-02T13:11:21;11.20;;;5.90;;
57663;SDS011;43493;53.098;6.064;2023-02-02T13:14:08;13.67;;;6.23;;
57663;SDS011;43493;53.098;6.064;2023-02-02T13:16:41;14.10;;;5.00;;
57663;SDS011;43493;53.098;6.064;2023-02-02T13:22:28;14.63;;;5.70;;
57663;SDS011;43493;53.098;6.064;2023-02-02T13:25:02;20.85;;;7.28;;
57663;SDS011;43493;53.098;6.064;2023-02-02T13:27:32;20.00;;;7.27;;
57663;SDS011;43493;53.098;6.064;2023-02-02T13:30:04;33.43;;;8.47;;
57663;SDS011;43493;53.098;6.064;2023-02-02T13:32:41;37.73;;;8.70;;
57663;SDS011;43493;53.098;6.064;2023-02-02T13:35:20;35.47;;;9.83;;
57663;SDS011;43493;53.098;6.064;2023-02-02T13:40:23;33.60;;;9.40;;
57663;SDS011;43493;53.098;6.064;2023-02-02T13:45:40;44.60;;;9.93;;
57663;SDS011;43493;53.098;6.064;2023-02-02T13:48:31;35.13;;;10.10;;
57663;SDS011;43493;53.098;6.064;2023-02-02T14:00:18;32.53;;;9.90;;
57663;SDS011;43493;53.098;6.064;2023-02-02T14:02:51;39.40;;;10.93;;
57663;SDS011;43493;53.098;6.064;2023-02-02T14:05:30;43.90;;;10.77;;
57663;SDS011;43493;53.098;6.064;2023-02-02T14:08:14;38.03;;;10.93;;
57663;SDS011;43493;53.098;6.064;2023-02-02T14:13:20;32.13;;;10.00;;
57663;SDS011;43493;53.098;6.064;2023-02-02T14:16:51;33.80;;;9.00;;
57663;SDS011;43493;53.098;6.064;2023-02-02T14:19:02;35.37;;;8.50;;
57663;SDS011;43493;53.098;6.064;2023-02-02T14:23:58;27.17;;;7.47;;
57663;SDS011;43493;53.098;6.064;2023-02-02T14:31:57;34.27;;;7.40;;
57663;SDS011;43493;53.098;6.064;2023-02-02T14:39:50;35.30;;;6.85;;
57663;SDS011;43493;53.098;6.064;2023-02-02T14:45:30;32.07;;;6.80;;
57663;SDS011;43493;53.098;6.064;2023-02-02T14:48:17;23.03;;;5.03;;
57663;SDS011;43493;53.098;6.064;2023-02-02T14:50:48;37.80;;;5.70;;
57663;SDS011;43493;53.098;6.064;2023-02-02T14:58:28;36.03;;;6.10;;
57663;SDS011;43493;53.098;6.064;2023-02-02T15:01:21;25.67;;;5.73;;
57663;SDS011;43493;53.098;6.064;2023-02-02T15:06:43;29.75;;;5.95;;
57663;SDS011;43493;53.098;6.064;2023-02-02T15:12:19;34.00;;;6.43;;
57663;SDS011;43493;53.098;6.064;2023-02-02T15:17:19;25.70;;;5.80;;
57663;SDS011;43493;53.098;6.064;2023-02-02T15:20:04;38.50;;;7.57;;
57663;SDS011;43493;53.098;6.064;2023-02-02T15:22:51;30.13;;;5.20;;
57663;SDS011;43493;53.098;6.064;2023-02-02T15:25:23;31.63;;;6.07;;
57663;SDS011;43493;53.098;6.064;2023-02-02T15:28:01;27.77;;;5.77;;
57663;SDS011;43493;53.098;6.064;2023-02-02T15:30:30;35.67;;;6.50;;
57663;SDS011;43493;53.098;6.064;2023-02-02T15:33:04;28.77;;;6.03;;
57663;SDS011;43493;53.098;6.064;2023-02-02T15:35:38;28.27;;;5.90;;
57663;SDS011;43493;53.098;6.064;2023-02-02T15:38:05;28.00;;;6.13;;
57663;SDS011;43493;53.098;6.064;2023-02-02T15:40:36;24.10;;;5.47;;
57663;SDS011;43493;53.098;6.064;2023-02-02T15:43:03;19.63;;;5.00;;
57663;SDS011;43493;53.098;6.064;2023-02-02T15:48:27;18.48;;;5.13;;
57663;SDS011;43493;53.098;6.064;2023-02-02T15:51:13;18.13;;;6.33;;
57663;SDS011;43493;53.098;6.064;2023-02-02T15:56:16;19.67;;;5.43;;
57663;SDS011;43493;53.098;6.064;2023-02-02T15:58:53;25.37;;;6.70;;
57663;SDS011;43493;53.098;6.064;2023-02-02T16:01:21;20.40;;;6.37;;
57663;SDS011;43493;53.098;6.064;2023-02-02T16:03:50;22.13;;;6.40;;
57663;SDS011;43493;53.098;6.064;2023-02-02T16:06:35;25.83;;;6.90;;
57663;SDS011;43493;53.098;6.064;2023-02-02T16:09:04;24.20;;;6.50;;
57663;SDS011;43493;53.098;6.064;2023-02-02T16:11:32;24.60;;;6.47;;
57663;SDS011;43493;53.098;6.064;2023-02-02T16:14:05;27.00;;;6.37;;
57663;SDS011;43493;53.098;6.064;2023-02-02T16:16:38;19.50;;;5.73;;
57663;SDS011;43493;53.098;6.064;2023-02-02T16:21:33;23.83;;;5.97;;
57663;SDS011;43493;53.098;6.064;2023-02-02T16:24:03;29.63;;;6.43;;
57663;SDS011;43493;53.098;6.064;2023-02-02T16:26:31;22.83;;;6.17;;
57663;SDS011;43493;53.098;6.064;2023-02-02T16:28:59;26.17;;;6.00;;
57663;SDS011;43493;53.098;6.064;2023-02-02T16:31:25;27.00;;;6.37;;
57663;SDS011;43493;53.098;6.064;2023-02-02T16:33:54;27.23;;;5.77;;
57663;SDS011;43493;53.098;6.064;2023-02-02T16:36:27;31.33;;;7.00;;
57663;SDS011;43493;53.098;6.064;2023-02-02T16:38:54;30.77;;;6.43;;
57663;SDS011;43493;53.098;6.064;2023-02-02T16:41:26;28.90;;;6.73;;
57663;SDS011;43493;53.098;6.064;2023-02-02T16:44:26;26.65;;;6.68;;
57663;SDS011;43493;53.098;6.064;2023-02-02T16:47:01;24.83;;;6.40;;
57663;SDS011;43493;53.098;6.064;2023-02-02T16:49:28;34.37;;;6.83;;
57663;SDS011;43493;53.098;6.064;2023-02-02T16:52:11;29.60;;;6.70;;
57663;SDS011;43493;53.098;6.064;2023-02-02T16:54:52;29.47;;;7.03;;
57663;SDS011;43493;53.098;6.064;2023-02-02T16:57:24;28.03;;;6.30;;
57663;SDS011;43493;53.098;6.064;2023-02-02T16:59:53;30.33;;;6.97;;
57663;SDS011;43493;53.098;6.064;2023-02-02T17:02:31;30.00;;;7.23;;
57663;SDS011;43493;53.098;6.064;2023-02-02T17:05:01;29.00;;;5.67;;
57663;SDS011;43493;53.098;6.064;2023-02-02T17:07:39;24.53;;;6.47;;
57663;SDS011;43493;53.098;6.064;2023-02-02T17:10:19;35.63;;;6.97;;
57663;SDS011;43493;53.098;6.064;2023-02-02T17:12:49;32.90;;;7.83;;
57663;SDS011;43493;53.098;6.064;2023-02-02T17:17:40;27.57;;;6.73;;
57663;SDS011;43493;53.098;6.064;2023-02-02T17:20:07;35.07;;;7.63;;
57663;SDS011;43493;53.098;6.064;2023-02-02T17:22:35;32.50;;;7.50;;
57663;SDS011;43493;53.098;6.064;2023-02-02T17:25:04;28.63;;;5.90;;
57663;SDS011;43493;53.098;6.064;2023-02-02T17:27:31;31.80;;;6.77;;
57663;SDS011;43493;53.098;6.064;2023-02-02T17:29:59;29.07;;;6.03;;
57663;SDS011;43493;53.098;6.064;2023-02-02T17:32:26;33.47;;;8.23;;
57663;SDS011;43493;53.098;6.064;2023-02-02T17:34:51;30.63;;;7.53;;
57663;SDS011;43493;53.098;6.064;2023-02-02T17:37:17;26.93;;;7.17;;